createdAt,value
2019-03-09T00:00:46.741Z,2.1
2019-03-09T00:01:46.677Z,2.2
2019-03-09T00:02:46.664Z,2.4
2019-03-09T00:03:46.761Z,2.7
2019-03-09T00:04:46.773Z,2.7
2019-03-09T00:05:46.758Z,2.5
2019-03-09T00:06:46.797Z,2.3
2019-03-09T00:07:46.793Z,2.4
2019-03-09T00:08:46.917Z,2.2
2019-03-09T00:09:46.889Z,2.3
2019-03-09T00:10:46.935Z,2.3
2019-03-09T00:11:46.934Z,2.2
2019-03-09T00:12:46.980Z,2.3
2019-03-09T00:13:47.008Z,2.3
2019-03-09T00:14:47.007Z,2.4
2019-03-09T00:15:47.040Z,2.4
2019-03-09T00:16:49.583Z,2.2
2019-03-09T00:17:47.127Z,2.1
2019-03-09T00:18:47.129Z,2.1
2019-03-09T00:19:47.151Z,2.1
2019-03-09T00:20:47.167Z,2
2019-03-09T00:21:47.214Z,2
2019-03-09T00:22:47.257Z,2
2019-03-09T00:23:47.243Z,2.1
2019-03-09T00:24:47.279Z,2.2
2019-03-09T00:25:47.298Z,2.1
2019-03-09T00:26:47.324Z,2.2
2019-03-09T00:27:47.352Z,2.2
2019-03-09T00:28:47.376Z,2.3
2019-03-09T00:29:47.436Z,2.2
2019-03-09T00:30:47.441Z,2.2
2019-03-09T00:31:47.485Z,2
2019-03-09T00:32:47.521Z,2
2019-03-09T00:33:47.534Z,1.9
2019-03-09T00:34:47.583Z,2
2019-03-09T00:35:47.559Z,2
2019-03-09T00:36:47.611Z,2
2019-03-09T00:37:47.590Z,1.9
2019-03-09T00:38:47.616Z,2
2019-03-09T00:39:47.623Z,2.2
2019-03-09T00:40:47.663Z,2.1
2019-03-09T00:41:47.783Z,2
2019-03-09T00:42:47.687Z,2
2019-03-09T00:43:47.681Z,1.9
2019-03-09T00:44:47.754Z,1.8
2019-03-09T00:45:47.753Z,1.8
2019-03-09T00:46:47.770Z,1.7
2019-03-09T00:47:47.823Z,1.9
2019-03-09T00:48:47.818Z,1.9
2019-03-09T00:49:47.800Z,2
2019-03-09T00:50:47.813Z,2
2019-03-09T00:51:47.854Z,1.9
2019-03-09T00:52:47.859Z,1.8
2019-03-09T00:53:47.858Z,1.9
2019-03-09T00:54:47.883Z,1.9
2019-03-09T00:55:47.882Z,2
2019-03-09T00:56:47.912Z,2
2019-03-09T00:57:47.943Z,2
2019-03-09T00:58:47.938Z,2
2019-03-09T00:59:47.961Z,2.1
2019-03-09T01:00:47.957Z,2.1
2019-03-09T01:01:47.966Z,2.1
2019-03-09T01:02:47.977Z,2
2019-03-09T01:03:47.975Z,1.9
2019-03-09T01:04:47.997Z,1.8
2019-03-09T01:05:48.045Z,1.9
2019-03-09T01:06:48.024Z,1.9
2019-03-09T01:07:48.030Z,2.1
2019-03-09T01:08:48.032Z,2
2019-03-09T01:09:48.040Z,1.8
2019-03-09T01:10:48.090Z,1.8
2019-03-09T01:11:48.046Z,1.8
2019-03-09T01:12:48.051Z,1.9
2019-03-09T01:13:48.059Z,2
2019-03-09T01:14:48.105Z,1.8
2019-03-09T01:15:48.114Z,1.9
2019-03-09T01:16:48.065Z,1.8
2019-03-09T01:17:48.070Z,1.8
2019-03-09T01:18:48.190Z,1.8
2019-03-09T01:19:48.090Z,1.8
2019-03-09T01:20:48.104Z,1.7
2019-03-09T01:21:48.087Z,1.8
2019-03-09T01:22:48.090Z,1.7
2019-03-09T01:23:48.120Z,1.7
2019-03-09T01:24:48.089Z,1.8
2019-03-09T01:25:48.091Z,1.8
2019-03-09T01:26:48.121Z,1.9
2019-03-09T01:27:48.144Z,1.7
2019-03-09T01:28:48.138Z,1.8
2019-03-09T01:29:48.156Z,1.7
2019-03-09T01:30:48.155Z,1.6
2019-03-09T01:31:48.168Z,1.5
2019-03-09T01:32:48.167Z,1.6
2019-03-09T01:33:48.206Z,1.5
2019-03-09T01:34:48.188Z,1.5
2019-03-09T01:35:48.172Z,1.6
2019-03-09T01:36:48.178Z,1.6
2019-03-09T01:37:48.207Z,1.5
2019-03-09T01:38:48.198Z,1.6
2019-03-09T01:39:48.184Z,1.5
2019-03-09T01:40:48.181Z,1.4
2019-03-09T01:41:48.199Z,1.5
2019-03-09T01:42:48.197Z,1.7
2019-03-09T01:43:48.244Z,1.6
2019-03-09T01:44:48.217Z,1.4
2019-03-09T01:45:48.231Z,1.5
2019-03-09T01:46:48.246Z,1.4
2019-03-09T01:47:48.223Z,1.3
2019-03-09T01:48:48.233Z,1.3
2019-03-09T01:49:50.433Z,1.4
2019-03-09T01:50:48.244Z,1.5
2019-03-09T01:51:48.231Z,1.7
2019-03-09T01:52:48.249Z,1.8
2019-03-09T01:53:48.242Z,1.6
2019-03-09T01:54:48.257Z,1.7
2019-03-09T01:55:48.252Z,1.6
2019-03-09T01:56:48.253Z,1.7
2019-03-09T01:57:48.274Z,1.9
2019-03-09T01:58:48.351Z,1.7
2019-03-09T01:59:48.305Z,1.6
2019-03-09T02:00:48.346Z,1.6
2019-03-09T02:01:48.336Z,1.4
2019-03-09T02:02:48.352Z,1.6
2019-03-09T02:03:48.384Z,1.3
2019-03-09T02:04:48.373Z,1.4
2019-03-09T02:05:48.446Z,1.3
2019-03-09T02:06:48.406Z,1.3
2019-03-09T02:07:48.448Z,1.3
2019-03-09T02:08:48.478Z,1.4
2019-03-09T02:09:48.571Z,1.3
2019-03-09T02:10:48.545Z,1.3
2019-03-09T02:11:48.490Z,1.2
2019-03-09T02:12:48.513Z,1.1
2019-03-09T02:13:48.505Z,1.4
2019-03-09T02:14:48.547Z,1.3
2019-03-09T02:15:48.545Z,1.1
2019-03-09T02:16:48.539Z,1
2019-03-09T02:17:48.538Z,1.1
2019-03-09T02:18:48.562Z,1.3
2019-03-09T02:19:48.574Z,1.3
2019-03-09T02:20:48.551Z,1.1
2019-03-09T02:21:48.579Z,1.1
2019-03-09T02:22:48.598Z,1.1
2019-03-09T02:23:48.641Z,1.2
2019-03-09T02:24:48.591Z,1.3
2019-03-09T02:25:48.613Z,1.3
2019-03-09T02:26:48.576Z,1.3
2019-03-09T02:27:48.587Z,1.2
2019-03-09T02:28:48.570Z,1.2
2019-03-09T02:29:48.576Z,1.1
2019-03-09T02:30:48.612Z,1
2019-03-09T02:31:48.652Z,0.9
2019-03-09T02:32:48.634Z,1.1
2019-03-09T02:33:48.615Z,1.2
2019-03-09T02:34:48.640Z,1.1
2019-03-09T02:35:48.679Z,1.1
2019-03-09T02:36:48.712Z,1
2019-03-09T02:37:48.744Z,1
2019-03-09T02:38:48.778Z,1.1
2019-03-09T02:39:48.888Z,1
2019-03-09T02:40:48.874Z,0.9
2019-03-09T02:41:48.884Z,0.9
2019-03-09T02:42:48.936Z,1.2
2019-03-09T02:43:48.958Z,1
2019-03-09T02:44:49.068Z,0.8
2019-03-09T02:45:49.050Z,1
2019-03-09T02:46:49.068Z,0.9
2019-03-09T02:47:49.113Z,1
2019-03-09T02:48:49.143Z,0.8
2019-03-09T02:49:49.169Z,1
2019-03-09T02:50:49.185Z,1.3
2019-03-09T02:51:49.207Z,1.1
2019-03-09T02:52:49.253Z,1.1
2019-03-09T02:53:49.271Z,1
2019-03-09T02:54:49.346Z,0.9
2019-03-09T02:55:49.321Z,0.9
2019-03-09T02:56:49.409Z,0.8
2019-03-09T02:57:49.393Z,1
2019-03-09T02:58:50.008Z,1.1
2019-03-09T02:59:49.460Z,1.2
2019-03-09T03:00:49.495Z,1.1
2019-03-09T03:01:49.491Z,1
2019-03-09T03:02:49.515Z,1
2019-03-09T03:03:49.605Z,0.9
2019-03-09T03:04:49.624Z,0.9
2019-03-09T03:05:49.605Z,1.1
2019-03-09T03:06:49.679Z,1
2019-03-09T03:07:49.689Z,1
2019-03-09T03:08:49.698Z,0.8
2019-03-09T03:09:49.710Z,0.9
2019-03-09T03:10:49.765Z,0.9
2019-03-09T03:11:49.893Z,1.1
2019-03-09T03:12:49.821Z,1.1
2019-03-09T03:13:49.856Z,1
2019-03-09T03:14:49.840Z,1
2019-03-09T03:15:49.842Z,1.2
2019-03-09T03:16:49.924Z,1.2
2019-03-09T03:17:49.900Z,1.2
2019-03-09T03:18:49.935Z,1.1
2019-03-09T03:19:49.969Z,0.9
2019-03-09T03:20:49.946Z,1.1
2019-03-09T03:21:49.991Z,1.1
2019-03-09T03:22:50.023Z,1
2019-03-09T03:23:50.011Z,1.1
2019-03-09T03:24:50.062Z,1
2019-03-09T03:25:50.056Z,1
2019-03-09T03:26:50.129Z,1
2019-03-09T03:27:50.094Z,1
2019-03-09T03:28:50.095Z,0.9
2019-03-09T03:29:50.121Z,0.9
2019-03-09T03:30:50.155Z,1
2019-03-09T03:31:50.172Z,1
2019-03-09T03:32:50.199Z,1
2019-03-09T03:33:50.157Z,1
2019-03-09T03:34:50.203Z,0.8
2019-03-09T03:35:50.200Z,0.9
2019-03-09T03:36:50.221Z,0.8
2019-03-09T03:37:50.223Z,0.8
2019-03-09T03:38:50.236Z,0.7
2019-03-09T03:39:50.250Z,0.8
2019-03-09T03:40:50.261Z,0.7
2019-03-09T03:41:50.277Z,0.6
2019-03-09T03:42:50.275Z,0.8
2019-03-09T03:43:50.295Z,0.7
2019-03-09T03:44:50.285Z,0.7
2019-03-09T03:45:50.317Z,0.7
2019-03-09T03:46:50.335Z,0.6
2019-03-09T03:47:50.392Z,0.7
2019-03-09T03:48:50.304Z,0.6
2019-03-09T03:49:50.353Z,0.5
2019-03-09T03:50:50.335Z,0.5
2019-03-09T03:51:50.336Z,0.6
2019-03-09T03:52:50.325Z,0.6
2019-03-09T03:53:50.336Z,0.7
2019-03-09T03:54:50.385Z,0.5
2019-03-09T03:55:50.368Z,0.6
2019-03-09T03:56:50.348Z,0.5
2019-03-09T03:57:50.365Z,0.5
2019-03-09T03:58:50.354Z,0.5
2019-03-09T03:59:50.367Z,0.5
2019-03-09T04:00:50.408Z,0.7
2019-03-09T04:01:50.414Z,0.5
2019-03-09T04:02:50.453Z,0.5
2019-03-09T04:03:50.492Z,0.2
2019-03-09T04:04:50.531Z,0.3
2019-03-09T04:05:50.588Z,0.5
2019-03-09T04:06:50.594Z,0.5
2019-03-09T04:07:50.629Z,0.4
2019-03-09T04:08:50.650Z,0.5
2019-03-09T04:09:50.673Z,0.5
2019-03-09T04:10:50.701Z,0.5
2019-03-09T04:11:50.705Z,0.5
2019-03-09T04:12:50.763Z,0.6
2019-03-09T04:13:50.792Z,0.3
2019-03-09T04:14:50.847Z,0.2
2019-03-09T04:15:50.869Z,0.2
2019-03-09T04:16:50.878Z,0.2
2019-03-09T04:17:50.940Z,0.3
2019-03-09T04:18:50.894Z,0.2
2019-03-09T04:19:50.965Z,0.4
2019-03-09T04:20:50.964Z,0.2
2019-03-09T04:21:50.991Z,0.3
2019-03-09T04:22:51.026Z,0.3
2019-03-09T04:23:51.012Z,0.2
2019-03-09T04:24:51.043Z,0.3
2019-03-09T04:25:51.045Z,0.2
2019-03-09T04:26:51.088Z,0.3
2019-03-09T04:27:51.120Z,0.3
2019-03-09T04:28:51.147Z,0.1
2019-03-09T04:29:51.163Z,0.1
2019-03-09T04:30:51.192Z,0
2019-03-09T04:31:51.245Z,0.1
2019-03-09T04:32:51.338Z,0.2
2019-03-09T04:33:51.269Z,0.2
2019-03-09T04:34:51.271Z,0.3
2019-03-09T04:35:51.276Z,0.3
2019-03-09T04:36:51.267Z,0.3
2019-03-09T04:37:51.293Z,0.5
2019-03-09T04:38:51.356Z,0.3
2019-03-09T04:39:51.358Z,0.4
2019-03-09T04:40:51.415Z,0.2
2019-03-09T04:41:51.377Z,0.2
2019-03-09T04:42:51.411Z,0.3
2019-03-09T04:43:51.544Z,0.3
2019-03-09T04:44:51.435Z,0.3
2019-03-09T04:45:51.444Z,0.2
2019-03-09T04:46:51.480Z,0.2
2019-03-09T04:47:51.477Z,0.2
2019-03-09T04:48:51.510Z,0
2019-03-09T04:49:51.508Z,0.1
2019-03-09T04:50:51.541Z,0.2
2019-03-09T04:51:51.549Z,0.4
2019-03-09T04:52:51.563Z,0.2
2019-03-09T04:53:51.608Z,0
2019-03-09T04:54:51.651Z,0.1
2019-03-09T04:55:51.620Z,0
2019-03-09T04:56:51.660Z,0.1
2019-03-09T04:57:51.672Z,0.2
2019-03-09T04:58:51.669Z,0.4
2019-03-09T04:59:51.698Z,0.4
2019-03-09T05:00:51.730Z,0.3
2019-03-09T05:01:51.721Z,0.4
2019-03-09T05:02:51.756Z,0.2
2019-03-09T05:03:51.741Z,0.1
2019-03-09T05:04:51.762Z,0.1
2019-03-09T05:05:51.781Z,0.1
2019-03-09T05:06:51.810Z,0.2
2019-03-09T05:07:51.787Z,0.2
2019-03-09T05:08:51.827Z,0.3
2019-03-09T05:09:51.808Z,0.3
2019-03-09T05:10:51.835Z,0.1
2019-03-09T05:11:51.846Z,0.3
2019-03-09T05:12:52.845Z,0.1
2019-03-09T05:13:51.858Z,0.1
2019-03-09T05:14:51.880Z,0.2
2019-03-09T05:15:51.869Z,0.1
2019-03-09T05:16:51.911Z,0.1
2019-03-09T05:17:51.886Z,0.1
2019-03-09T05:18:51.895Z,0.1
2019-03-09T05:19:51.905Z,0.2
2019-03-09T05:20:51.913Z,0
2019-03-09T05:21:51.887Z,0.1
2019-03-09T05:22:51.888Z,0
2019-03-09T05:23:51.895Z,0.2
2019-03-09T05:24:51.924Z,0.3
2019-03-09T05:25:51.912Z,0.1
2019-03-09T05:26:51.932Z,0.1
2019-03-09T05:27:51.921Z,0.2
2019-03-09T05:28:51.951Z,0.2
2019-03-09T05:29:51.954Z,0.1
2019-03-09T05:30:51.938Z,0
2019-03-09T05:31:51.942Z,0.2
2019-03-09T05:32:51.967Z,0.2
2019-03-09T05:33:51.945Z,0.5
2019-03-09T05:34:51.976Z,0.4
2019-03-09T05:35:51.974Z,0.3
2019-03-09T05:36:52.015Z,0.5
2019-03-09T05:37:51.995Z,1.5
2019-03-09T05:38:52.533Z,0.4
2019-03-09T05:39:51.983Z,0.5
2019-03-09T05:40:52.011Z,0.4
2019-03-09T05:41:52.001Z,0.4
2019-03-09T05:42:52.034Z,0.5
2019-03-09T05:43:52.006Z,0.4
2019-03-09T05:44:52.027Z,0.4
2019-03-09T05:45:52.042Z,0.5
2019-03-09T05:46:52.023Z,0.5
2019-03-09T05:47:52.027Z,0.5
2019-03-09T05:48:52.044Z,0.4
2019-03-09T05:49:52.046Z,0.6
2019-03-09T05:50:52.045Z,0.6
2019-03-09T05:51:52.075Z,0.4
2019-03-09T05:52:52.104Z,0.4
2019-03-09T05:53:52.122Z,0.5
2019-03-09T05:54:52.175Z,0.7
2019-03-09T05:55:52.194Z,0.5
2019-03-09T05:56:52.208Z,0.6
2019-03-09T05:57:52.285Z,0.6
2019-03-09T05:58:52.298Z,0.6
2019-03-09T05:59:52.289Z,0.9
2019-03-09T06:00:52.313Z,0.9
2019-03-09T06:01:52.357Z,1.2
2019-03-09T06:02:52.340Z,1.3
2019-03-09T06:03:52.413Z,1.4
2019-03-09T06:04:52.388Z,1.4
2019-03-09T06:05:52.388Z,1.7
2019-03-09T06:06:52.450Z,1.7
2019-03-09T06:07:52.412Z,2
2019-03-09T06:08:52.451Z,1.8
2019-03-09T06:09:52.494Z,1.9
2019-03-09T06:10:52.476Z,1.6
2019-03-09T06:11:52.504Z,1.6
2019-03-09T06:12:52.527Z,1.6
2019-03-09T06:13:52.532Z,1.8
2019-03-09T06:14:52.551Z,1.8
2019-03-09T06:15:52.592Z,1.9
2019-03-09T06:16:52.569Z,1.9
2019-03-09T06:17:52.561Z,1.8
2019-03-09T06:18:52.599Z,1.8
2019-03-09T06:19:52.635Z,1.8
2019-03-09T06:20:52.617Z,1.9
2019-03-09T06:21:52.656Z,1.9
2019-03-09T06:22:52.652Z,1.8
2019-03-09T06:23:52.672Z,2
2019-03-09T06:24:52.690Z,2
2019-03-09T06:25:52.690Z,2.3
2019-03-09T06:26:52.730Z,2.2
2019-03-09T06:27:52.714Z,2.1
2019-03-09T06:28:52.726Z,2.1
2019-03-09T06:29:52.769Z,2.1
2019-03-09T06:30:52.749Z,1.7
2019-03-09T06:31:52.739Z,2
2019-03-09T06:32:52.771Z,2.1
2019-03-09T06:33:52.814Z,2.4
2019-03-09T06:34:52.792Z,2.5
2019-03-09T06:35:52.809Z,2.4
2019-03-09T06:36:52.798Z,2.6
2019-03-09T06:37:52.802Z,2.5
2019-03-09T06:38:52.816Z,2.4
2019-03-09T06:39:52.821Z,2.3
2019-03-09T06:41:02.386Z,2.4
2019-03-09T06:41:52.823Z,2.4
2019-03-09T06:42:52.794Z,2.5
2019-03-09T06:43:52.901Z,2.5
2019-03-09T06:44:52.850Z,2.6
2019-03-09T06:45:52.820Z,2.4
2019-03-09T06:46:52.833Z,2.7
2019-03-09T06:47:52.834Z,2.4
2019-03-09T06:48:52.873Z,2.6
2019-03-09T06:49:52.928Z,2.7
2019-03-09T06:50:52.930Z,2.8
2019-03-09T06:51:52.949Z,2.9
2019-03-09T06:52:52.993Z,2.9
2019-03-09T06:53:53.024Z,2.9
2019-03-09T06:54:53.080Z,3
2019-03-09T06:55:53.103Z,3.2
2019-03-09T06:56:53.130Z,3.2
2019-03-09T06:57:53.142Z,3.1
2019-03-09T06:58:53.194Z,3.3
2019-03-09T06:59:53.220Z,3.3
2019-03-09T07:00:53.256Z,3.2
2019-03-09T07:01:53.278Z,3.3
2019-03-09T07:02:53.344Z,3.4
2019-03-09T07:03:53.445Z,3.6
2019-03-09T07:04:53.395Z,3.6
2019-03-09T07:05:53.389Z,3.6
2019-03-09T07:06:53.462Z,3.6
2019-03-09T07:07:53.473Z,3.7
2019-03-09T07:08:53.579Z,3.8
2019-03-09T07:09:54.549Z,3.8
2019-03-09T07:10:53.544Z,3.7
2019-03-09T07:11:53.577Z,3.8
2019-03-09T07:12:53.590Z,3.9
2019-03-09T07:13:53.591Z,4
2019-03-09T07:14:53.664Z,3.9
2019-03-09T07:15:53.652Z,3.9
2019-03-09T07:16:53.705Z,3.9
2019-03-09T07:17:53.750Z,3.9
2019-03-09T07:18:53.751Z,3.9
2019-03-09T07:19:53.878Z,4.1
2019-03-09T07:20:53.814Z,4.1
2019-03-09T07:21:53.817Z,4.2
2019-03-09T07:22:53.935Z,4.2
2019-03-09T07:23:53.910Z,4.1
2019-03-09T07:24:53.823Z,4.2
2019-03-09T07:25:53.842Z,4.1
2019-03-09T07:26:53.843Z,4.1
2019-03-09T07:27:53.857Z,3.9
2019-03-09T07:28:53.876Z,3.9
2019-03-09T07:29:53.939Z,4
2019-03-09T07:30:53.838Z,4.3
2019-03-09T07:31:53.882Z,4.3
2019-03-09T07:32:53.899Z,4.3
2019-03-09T07:33:53.874Z,4.2
2019-03-09T07:34:53.883Z,4.2
2019-03-09T07:35:54.881Z,4.3
2019-03-09T07:36:53.908Z,4.4
2019-03-09T07:37:53.894Z,4.5
2019-03-09T07:38:53.912Z,4.4
2019-03-09T07:39:53.933Z,4.3
2019-03-09T07:40:53.977Z,4.5
2019-03-09T07:41:53.943Z,4.5
2019-03-09T07:42:53.932Z,4.6
2019-03-09T07:43:53.978Z,4.7
2019-03-09T07:44:53.990Z,4.6
2019-03-09T07:45:54.002Z,4.5
2019-03-09T07:46:53.965Z,4.5
2019-03-09T07:47:53.960Z,4.5
2019-03-09T07:48:53.996Z,4.5
2019-03-09T07:49:54.003Z,4.3
2019-03-09T07:50:54.026Z,4.4
2019-03-09T07:51:54.051Z,4.5
2019-03-09T07:52:54.027Z,4.7
2019-03-09T07:53:54.018Z,4.7
2019-03-09T07:54:54.028Z,4.6
2019-03-09T07:55:54.100Z,4.6
2019-03-09T07:56:54.063Z,4.6
2019-03-09T07:57:54.067Z,4.7
2019-03-09T07:58:54.088Z,4.8
2019-03-09T07:59:54.454Z,4.8
2019-03-09T08:00:54.421Z,4.9
2019-03-09T08:01:54.382Z,5
2019-03-09T08:02:54.418Z,5
2019-03-09T08:03:54.344Z,5.1
2019-03-09T08:04:54.467Z,4.9
2019-03-09T08:05:54.307Z,4.8
2019-03-09T08:06:54.456Z,4.7
2019-03-09T08:07:54.502Z,4.7
2019-03-09T08:08:54.412Z,4.8
2019-03-09T08:09:54.427Z,4.8
2019-03-09T08:10:54.361Z,4.8
2019-03-09T08:11:54.354Z,4.8
2019-03-09T08:12:56.934Z,4.9
2019-03-09T08:13:54.449Z,4.9
2019-03-09T08:14:55.108Z,4.8
2019-03-09T08:15:54.548Z,4.6
2019-03-09T08:16:54.546Z,4.6
2019-03-09T08:17:55.806Z,4.7
2019-03-09T08:18:54.492Z,4.6
2019-03-09T08:19:54.295Z,4.7
2019-03-09T08:20:54.370Z,4.6
2019-03-09T08:21:54.504Z,4.6
2019-03-09T08:22:54.483Z,4.5
2019-03-09T08:23:56.445Z,4.2
2019-03-09T08:24:54.513Z,4.6
2019-03-09T08:25:54.461Z,4.7
2019-03-09T08:26:54.482Z,4.8
2019-03-09T08:27:54.463Z,4.4
2019-03-09T08:28:54.418Z,4.2
2019-03-09T08:29:54.527Z,4.1
2019-03-09T08:30:54.567Z,4.4
2019-03-09T08:31:54.612Z,4.2
2019-03-09T08:32:54.552Z,4.3
2019-03-09T08:33:54.519Z,4.4
2019-03-09T08:34:54.583Z,4.5
2019-03-09T08:35:54.498Z,4.4
2019-03-09T08:36:54.620Z,4.4
2019-03-09T08:37:54.566Z,4.8
2019-03-09T08:38:54.552Z,4.7
2019-03-09T08:39:54.484Z,4.5
2019-03-09T08:40:54.639Z,4.5
2019-03-09T08:41:54.580Z,4.2
2019-03-09T08:42:54.673Z,4.7
2019-03-09T08:43:54.572Z,4.7
2019-03-09T08:44:54.598Z,4.3
2019-03-09T08:45:54.614Z,4.6
2019-03-09T08:46:54.683Z,4.5
2019-03-09T08:47:54.632Z,4.8
2019-03-09T08:48:54.680Z,4.8
2019-03-09T08:49:54.649Z,4.6
2019-03-09T08:50:54.608Z,4.4
2019-03-09T08:51:54.570Z,4.2
2019-03-09T08:52:54.555Z,4.4
2019-03-09T08:53:54.605Z,4.4
2019-03-09T08:54:54.740Z,4.4
2019-03-09T08:55:54.701Z,4
2019-03-09T08:56:54.566Z,4.1
2019-03-09T08:57:54.723Z,3.9
2019-03-09T08:58:54.705Z,4
2019-03-09T08:59:54.570Z,4.4
2019-03-09T09:00:54.637Z,4.4
2019-03-09T09:01:54.671Z,4.4
2019-03-09T09:02:54.703Z,3.8
2019-03-09T09:03:54.606Z,3.7
2019-03-09T09:04:54.617Z,3.6
2019-03-09T09:05:54.699Z,3.8
2019-03-09T09:06:54.636Z,3.7
2019-03-09T09:07:54.682Z,3.8
2019-03-09T09:08:54.435Z,4.2
2019-03-09T09:09:54.440Z,4
2019-03-09T09:10:54.451Z,3.9
2019-03-09T09:11:54.471Z,4
2019-03-09T09:12:54.453Z,4.5
2019-03-09T09:13:54.450Z,3.8
2019-03-09T09:14:54.465Z,3.7
2019-03-09T09:15:54.520Z,3.8
2019-03-09T09:16:54.464Z,3.7
2019-03-09T09:17:54.478Z,3.8
2019-03-09T09:18:54.497Z,3.7
2019-03-09T09:19:54.465Z,4.1
2019-03-09T09:20:54.474Z,4
2019-03-09T09:21:54.505Z,3.9
2019-03-09T09:22:54.520Z,3.5
2019-03-09T09:23:54.539Z,3.8
2019-03-09T09:24:54.531Z,3.8
2019-03-09T09:25:54.526Z,3.4
2019-03-09T09:26:54.536Z,3.6
2019-03-09T09:27:54.528Z,3.6
2019-03-09T09:28:54.510Z,4.1
2019-03-09T09:29:54.545Z,3.9
2019-03-09T09:30:54.512Z,3.3
2019-03-09T09:31:54.571Z,3.6
2019-03-09T09:32:54.544Z,3.9
2019-03-09T09:33:54.555Z,3.5
2019-03-09T09:34:54.551Z,3.5
2019-03-09T09:35:54.541Z,3.6
2019-03-09T09:36:54.532Z,4.2
2019-03-09T09:37:54.879Z,4.4
2019-03-09T09:38:54.571Z,4.2
2019-03-09T09:39:54.566Z,4
2019-03-09T09:40:54.590Z,3.8
2019-03-09T09:41:54.596Z,3.9
2019-03-09T09:42:54.675Z,3.7
2019-03-09T09:43:54.582Z,3.7
2019-03-09T09:44:54.600Z,3.6
2019-03-09T09:45:54.588Z,3.6
2019-03-09T09:46:54.627Z,3.6
2019-03-09T09:47:54.609Z,3.4
2019-03-09T09:48:54.613Z,3.4
2019-03-09T09:49:54.629Z,3.5
2019-03-09T09:50:54.652Z,3.6
2019-03-09T09:51:54.609Z,4
2019-03-09T09:52:54.628Z,3.8
2019-03-09T09:53:54.648Z,3.5
2019-03-09T09:54:54.678Z,3.6
2019-03-09T09:55:54.667Z,3.7
2019-03-09T09:56:54.689Z,3.7
2019-03-09T09:57:54.687Z,3.8
2019-03-09T09:58:54.693Z,4
2019-03-09T09:59:54.793Z,3.7
2019-03-09T10:00:54.676Z,3.6
2019-03-09T10:01:54.696Z,3.4
2019-03-09T10:02:54.715Z,3.5
2019-03-09T10:03:54.713Z,3.5
2019-03-09T10:04:54.736Z,3.7
2019-03-09T10:05:54.710Z,3.8
2019-03-09T10:06:54.761Z,3.4
2019-03-09T10:07:54.726Z,3.4
2019-03-09T10:08:54.802Z,4
2019-03-09T10:09:54.736Z,4
2019-03-09T10:10:54.767Z,3.7
2019-03-09T10:11:54.832Z,3.5
2019-03-09T10:12:55.852Z,3.7
2019-03-09T10:13:54.821Z,3.5
2019-03-09T10:14:54.823Z,3.6
2019-03-09T10:15:54.983Z,3.6
2019-03-09T10:16:54.796Z,3.4
2019-03-09T10:17:54.823Z,3.4
2019-03-09T10:18:54.845Z,3.5
2019-03-09T10:19:54.858Z,3.4
2019-03-09T10:20:54.875Z,3.5
2019-03-09T10:21:57.326Z,3.3
2019-03-09T10:23:03.323Z,3.4
2019-03-09T10:23:54.876Z,3.5
2019-03-09T10:24:54.916Z,3.4
2019-03-09T10:25:54.893Z,3.2
2019-03-09T10:26:54.868Z,3.4
2019-03-09T10:27:54.895Z,3.5
2019-03-09T10:28:54.916Z,3.5
2019-03-09T10:29:54.900Z,3.5
2019-03-09T10:30:54.898Z,3.3
2019-03-09T10:31:54.919Z,3.8
2019-03-09T10:32:54.941Z,3.7
2019-03-09T10:33:54.941Z,3.7
2019-03-09T10:34:54.947Z,3.5
2019-03-09T10:35:54.956Z,3.7
2019-03-09T10:36:54.944Z,3.4
2019-03-09T10:37:54.939Z,3.3
2019-03-09T10:38:54.991Z,3.1
2019-03-09T10:39:54.975Z,3.1
2019-03-09T10:40:54.978Z,3.3
2019-03-09T10:41:55.003Z,3.4
2019-03-09T10:42:55.011Z,3.3
2019-03-09T10:43:54.973Z,3.3
2019-03-09T10:44:54.985Z,3.4
2019-03-09T10:45:55.010Z,3.2
2019-03-09T10:46:55.006Z,3.3
2019-03-09T10:47:55.056Z,2.9
2019-03-09T10:48:55.006Z,3.5
2019-03-09T10:49:55.015Z,3.2
2019-03-09T10:50:55.008Z,3.3
2019-03-09T10:51:55.055Z,3.5
2019-03-09T10:52:55.065Z,3.3
2019-03-09T10:53:55.036Z,3.4
2019-03-09T10:54:55.088Z,3.4
2019-03-09T10:55:55.079Z,3.2
2019-03-09T10:56:55.602Z,3.4
2019-03-09T10:57:55.087Z,3.4
2019-03-09T10:58:55.105Z,3.5
2019-03-09T10:59:55.114Z,3.8
2019-03-09T11:00:55.105Z,3.4
2019-03-09T11:01:55.083Z,3.3
2019-03-09T11:02:55.122Z,3.8
2019-03-09T11:03:55.109Z,3.6
2019-03-09T11:04:55.125Z,3.6
2019-03-09T11:05:55.118Z,3.3
2019-03-09T11:06:55.152Z,3.5
2019-03-09T11:07:55.129Z,3.4
2019-03-09T11:08:55.155Z,3.4
2019-03-09T11:09:55.141Z,3.6
2019-03-09T11:10:55.141Z,3.4
2019-03-09T11:11:55.153Z,3.4
2019-03-09T11:12:55.159Z,3.3
2019-03-09T11:13:55.150Z,3.3
2019-03-09T11:14:56.262Z,3.2
2019-03-09T11:15:55.154Z,3.3
2019-03-09T11:16:55.142Z,3.5
2019-03-09T11:17:55.158Z,3.7
2019-03-09T11:18:55.162Z,3.7
2019-03-09T11:19:55.205Z,3.5
2019-03-09T11:20:55.173Z,3.5
2019-03-09T11:21:55.186Z,3.3
2019-03-09T11:22:55.235Z,3.3
2019-03-09T11:23:55.194Z,3.6
2019-03-09T11:25:03.027Z,3.5
2019-03-09T11:25:55.185Z,3.3
2019-03-09T11:26:55.190Z,3.2
2019-03-09T11:27:55.190Z,3.2
2019-03-09T11:28:55.199Z,3.2
2019-03-09T11:29:55.226Z,3.1
2019-03-09T11:30:55.198Z,3.2
2019-03-09T11:31:55.205Z,3.3
2019-03-09T11:32:55.247Z,3.4
2019-03-09T11:33:55.295Z,3.3
2019-03-09T11:34:55.177Z,3.7
2019-03-09T11:35:55.232Z,3.4
2019-03-09T11:36:55.235Z,3.4
2019-03-09T11:37:55.216Z,3.5
2019-03-09T11:38:55.246Z,4
2019-03-09T11:39:55.217Z,3.6
2019-03-09T11:40:57.730Z,3.9
2019-03-09T11:41:55.264Z,3.6
2019-03-09T11:42:55.253Z,3.8
2019-03-09T11:43:55.247Z,3.2
2019-03-09T11:44:55.277Z,3.5
2019-03-09T11:45:55.244Z,3.2
2019-03-09T11:46:55.274Z,3.2
2019-03-09T11:47:55.307Z,3.3
2019-03-09T11:48:55.337Z,3.4
2019-03-09T11:49:55.316Z,3.1
2019-03-09T11:50:55.295Z,3
2019-03-09T11:51:55.277Z,3.1
2019-03-09T11:52:55.291Z,3.3
2019-03-09T11:53:55.310Z,3.4
2019-03-09T11:54:55.324Z,3.5
2019-03-09T11:55:55.302Z,3.3
2019-03-09T11:56:55.314Z,3.3
2019-03-09T11:57:55.283Z,3.4
2019-03-09T11:58:55.298Z,3.3
2019-03-09T11:59:55.306Z,3.3
2019-03-09T12:00:55.304Z,3.2
2019-03-09T12:01:55.326Z,3.4
2019-03-09T12:02:55.347Z,3.3
2019-03-09T12:03:55.343Z,3.2
2019-03-09T12:04:55.312Z,3.2
2019-03-09T12:05:55.356Z,3.2
2019-03-09T12:06:55.359Z,3.2
2019-03-09T12:07:55.361Z,3.3
2019-03-09T12:08:55.346Z,3.2
2019-03-09T12:09:55.362Z,3.2
2019-03-09T12:10:55.351Z,3.1
2019-03-09T12:11:55.381Z,3.3
2019-03-09T12:12:55.376Z,3.5
2019-03-09T12:13:55.400Z,3.5
2019-03-09T12:14:55.353Z,3.4
2019-03-09T12:15:55.345Z,3.3
2019-03-09T12:16:55.384Z,3.4
2019-03-09T12:17:55.368Z,3.2
2019-03-09T12:18:55.372Z,3.1
2019-03-09T12:19:55.419Z,3.1
2019-03-09T12:20:55.415Z,3.2
2019-03-09T12:21:55.381Z,3.2
2019-03-09T12:23:00.818Z,3.5
2019-03-09T12:23:55.394Z,3.7
2019-03-09T12:24:55.398Z,3.7
2019-03-09T12:25:57.854Z,3.4
2019-03-09T12:26:55.420Z,3.4
2019-03-09T12:27:58.103Z,3.2
2019-03-09T12:28:55.383Z,4
2019-03-09T12:29:55.405Z,4
2019-03-09T12:30:55.397Z,3.9
2019-03-09T12:31:55.416Z,3.8
2019-03-09T12:32:55.466Z,4
2019-03-09T12:33:55.432Z,3.8
2019-03-09T12:34:55.501Z,3.4
2019-03-09T12:35:55.418Z,3.4
2019-03-09T12:36:55.517Z,3.7
2019-03-09T12:37:55.422Z,3.4
2019-03-09T12:39:11.353Z,3.5
2019-03-09T12:39:55.463Z,3.7
2019-03-09T12:40:55.450Z,3.3
2019-03-09T12:41:55.472Z,3.1
2019-03-09T12:42:55.464Z,3.2
2019-03-09T12:43:55.455Z,3.6
2019-03-09T12:44:55.453Z,3.3
2019-03-09T12:45:55.450Z,3.1
2019-03-09T12:46:55.473Z,3.3
2019-03-09T12:47:55.508Z,3.3
2019-03-09T12:48:55.453Z,3.1
2019-03-09T12:49:55.452Z,3
2019-03-09T12:50:55.507Z,3.2
2019-03-09T12:51:55.496Z,3.4
2019-03-09T12:52:55.514Z,3.4
2019-03-09T12:53:55.475Z,3.7
2019-03-09T12:54:55.494Z,3.9
2019-03-09T12:55:55.501Z,3.6
2019-03-09T12:56:55.514Z,3.7
2019-03-09T12:57:55.522Z,3.7
2019-03-09T12:58:55.507Z,3.7
2019-03-09T12:59:55.562Z,3.6
2019-03-09T13:00:55.511Z,3.8
2019-03-09T13:01:55.515Z,3.7
2019-03-09T13:03:55.507Z,3.9
2019-03-09T13:04:00.360Z,3.9
2019-03-09T13:04:55.507Z,3.5
2019-03-09T13:05:55.551Z,3.4
2019-03-09T13:06:55.528Z,3.5
2019-03-09T13:07:55.507Z,3.6
2019-03-09T13:08:55.518Z,3.6
2019-03-09T13:09:55.564Z,3.9
2019-03-09T13:10:56.090Z,3.9
2019-03-09T13:11:55.536Z,4.4
2019-03-09T13:12:55.564Z,4.7
2019-03-09T13:13:55.589Z,5.5
2019-03-09T13:14:55.617Z,5.1
2019-03-09T13:16:11.216Z,5.6
2019-03-09T13:16:55.632Z,5.3
2019-03-09T13:17:55.530Z,5.2
2019-03-09T13:18:55.551Z,5.4
2019-03-09T13:19:55.551Z,5.1
2019-03-09T13:20:55.565Z,5.2
2019-03-09T13:21:55.543Z,4.8
2019-03-09T13:22:55.565Z,5
2019-03-09T13:23:55.554Z,4.8
2019-03-09T13:24:55.560Z,4.9
2019-03-09T13:25:55.580Z,4.6
2019-03-09T13:26:55.579Z,4.3
2019-03-09T13:27:55.657Z,4.6
2019-03-09T13:28:55.609Z,4.3
2019-03-09T13:29:55.602Z,4
2019-03-09T13:30:55.611Z,3.8
2019-03-09T13:31:55.609Z,4.3
2019-03-09T13:32:55.603Z,4
2019-03-09T13:33:55.604Z,3.9
2019-03-09T13:34:55.654Z,4.1
2019-03-09T13:35:55.635Z,3.8
2019-03-09T13:36:55.674Z,4
2019-03-09T13:37:55.663Z,3.7
2019-03-09T13:38:55.622Z,3.5
2019-03-09T13:39:55.635Z,3.2
2019-03-09T13:40:55.637Z,3.4
2019-03-09T13:41:55.694Z,3.9
2019-03-09T13:42:55.658Z,3.3
2019-03-09T13:43:55.690Z,3.4
2019-03-09T13:44:55.711Z,3.3
2019-03-09T13:45:55.748Z,3.4
2019-03-09T13:46:55.689Z,3.2
2019-03-09T13:47:55.729Z,3.3
2019-03-09T13:48:55.703Z,3.4
2019-03-09T13:49:55.699Z,3.2
2019-03-09T13:50:55.767Z,3.8
2019-03-09T13:51:55.961Z,3.5